createdAt,value
2018-03-07T05:26:01.677Z,17.51
2018-03-07T05:27:11.167Z,17.54
2018-03-07T05:28:20.655Z,17.55
2018-03-07T05:29:30.180Z,17.55
2018-03-07T05:30:39.665Z,17.58
2018-03-07T05:31:49.255Z,17.62
2018-03-07T05:32:58.739Z,17.66
2018-03-07T05:34:08.318Z,17.79
2018-03-07T05:35:18.294Z,17.72
2018-03-07T05:36:27.789Z,17.74
2018-03-07T05:37:37.811Z,17.74
2018-03-07T05:38:47.026Z,17.89
2018-03-07T05:39:55.979Z,17.81
2018-03-07T05:41:05.464Z,17.89
2018-03-07T05:42:14.688Z,18
2018-03-07T05:43:24.728Z,17.9
2018-03-07T05:44:34.220Z,18.02
2018-03-07T05:45:43.982Z,18.07
2018-03-07T05:46:53.737Z,18
2018-03-07T05:48:03.223Z,18.08
2018-03-07T05:49:12.462Z,18.07
2018-03-07T05:50:21.683Z,18.05
2018-03-07T05:51:31.172Z,18.1
2018-03-07T05:52:40.926Z,18.07
2018-03-07T05:53:50.419Z,18.15
2018-03-07T05:55:00.190Z,18.23
2018-03-07T05:56:09.415Z,18.32
2018-03-07T05:57:19.229Z,18.32
2018-03-07T05:58:29.008Z,18.36
2018-03-07T05:59:39.714Z,18.51
2018-03-07T06:00:49.212Z,18.41
2018-03-07T06:01:58.704Z,18.51
2018-03-07T06:03:08.209Z,18.6
2018-03-07T06:04:17.435Z,18.58
2018-03-07T06:05:27.203Z,18.63
2018-03-07T06:06:36.425Z,18.62
2018-03-07T06:07:45.923Z,18.7
2018-03-07T06:08:54.886Z,18.7
2018-03-07T06:10:04.378Z,18.75
2018-03-07T06:11:14.418Z,18.76
2018-03-07T06:12:23.374Z,18.8
2018-03-07T06:13:32.593Z,18.87
2018-03-07T06:14:41.814Z,18.81
2018-03-07T06:15:51.309Z,18.78
2018-03-07T06:16:59.996Z,18.88
2018-03-07T06:18:09.758Z,18.94
2018-03-07T06:19:19.243Z,18.88
2018-03-07T06:20:29.380Z,19.02
2018-03-07T06:21:38.883Z,18.91
2018-03-07T06:22:48.373Z,19.02
2018-03-07T06:23:57.060Z,19.04
2018-03-07T06:25:06.560Z,18.95
2018-03-07T06:26:16.330Z,19.06
2018-03-07T06:27:26.089Z,19.06
2018-03-07T06:28:35.852Z,19.1
2018-03-07T06:29:45.079Z,19.08
2018-03-07T06:30:54.839Z,19.1
2018-03-07T06:32:04.333Z,19.07
2018-03-07T06:33:14.104Z,19.18
2018-03-07T06:34:23.859Z,19.18
2018-03-07T06:35:33.077Z,19.1
2018-03-07T06:36:42.572Z,19.11
2018-03-07T06:37:51.795Z,19.22
2018-03-07T06:39:01.552Z,19.11
2018-03-07T06:40:11.047Z,19.18
2018-03-07T06:41:20.264Z,19.19
2018-03-07T06:42:29.756Z,19.16
2018-03-07T06:43:39.522Z,19.22
2018-03-07T06:44:49.295Z,19.25
2018-03-07T06:45:59.060Z,19.14
2018-03-07T06:47:08.817Z,19.22
2018-03-07T06:48:18.842Z,19.22
2018-03-07T06:49:28.333Z,19.25
2018-03-07T06:50:38.092Z,19.13
2018-03-07T06:51:47.313Z,19.29
2018-03-07T06:52:56.814Z,19.19
2018-03-07T06:54:06.034Z,19.26
2018-03-07T06:55:15.796Z,19.23
2018-03-07T06:56:25.291Z,19.26
2018-03-07T06:57:34.839Z,19.25
2018-03-07T06:58:44.709Z,19.29
2018-03-07T06:59:54.259Z,19.29
2018-03-07T07:01:03.753Z,19.26
2018-03-07T07:02:12.709Z,19.25
2018-03-07T07:03:22.202Z,19.21
2018-03-07T07:04:31.160Z,19.26
2018-03-07T07:05:40.388Z,19.26
2018-03-07T07:06:49.891Z,19.25
2018-03-07T07:07:59.391Z,19.25
2018-03-07T07:09:08.887Z,19.26
2018-03-07T07:10:18.386Z,19.28
2018-03-07T07:11:27.889Z,19.29
2018-03-07T07:12:37.407Z,19.26
2018-03-07T07:13:46.897Z,19.31
2018-03-07T07:14:56.920Z,19.28
2018-03-07T07:16:06.716Z,19.32
2018-03-07T07:17:15.639Z,19.28
2018-03-07T07:18:24.861Z,19.29
2018-03-07T07:19:34.357Z,19.31
2018-03-07T07:20:44.118Z,19.33
2018-03-07T07:21:53.880Z,19.37
2018-03-07T07:23:03.640Z,19.28
2018-03-07T07:24:13.399Z,19.31
2018-03-07T07:25:22.625Z,19.33
2018-03-07T07:26:32.125Z,19.33
2018-03-07T07:27:41.887Z,19.26
2018-03-07T07:28:51.649Z,19.33
2018-03-07T07:30:01.135Z,19.33
2018-03-07T07:31:10.623Z,19.26
2018-03-07T07:32:20.646Z,19.28
2018-03-07T07:33:29.866Z,19.33
2018-03-07T07:34:39.633Z,19.31
2018-03-07T07:35:48.849Z,19.28
2018-03-07T07:36:58.335Z,19.31
2018-03-07T07:38:07.828Z,19.37
2018-03-07T07:39:17.055Z,19.32
2018-03-07T07:40:26.827Z,19.32
2018-03-07T07:41:36.054Z,19.36
2018-03-07T07:42:45.549Z,19.31
2018-03-07T07:43:55.318Z,19.37
2018-03-07T07:45:04.824Z,19.37
2018-03-07T07:46:14.326Z,19.36
2018-03-07T07:47:23.288Z,19.32
2018-03-07T07:48:32.503Z,19.29
2018-03-07T07:49:42.264Z,19.29
2018-03-07T07:50:51.767Z,19.29
2018-03-07T07:52:01.532Z,19.26
2018-03-07T07:53:11.040Z,19.31
2018-03-07T07:54:20.261Z,19.31
2018-03-07T07:55:30.031Z,19.33
2018-03-07T07:56:39.556Z,19.28
2018-03-07T07:57:49.045Z,19.31
2018-03-07T07:58:58.813Z,19.39
2018-03-07T08:00:07.767Z,19.26
2018-03-07T08:01:16.993Z,19.41
2018-03-07T08:02:25.944Z,19.36
2018-03-07T08:03:35.166Z,19.36
2018-03-07T08:04:44.396Z,19.33
2018-03-07T08:05:54.200Z,19.4
2018-03-07T08:07:03.764Z,19.43
2018-03-07T08:08:13.257Z,19.41
2018-03-07T08:09:22.533Z,19.46
2018-03-07T08:10:32.077Z,19.36
2018-03-07T08:11:41.576Z,19.44
2018-03-07T08:12:51.608Z,19.47
2018-03-07T08:14:01.368Z,19.47
2018-03-07T08:15:11.405Z,19.39
2018-03-07T08:16:21.166Z,19.32
2018-03-07T08:17:30.656Z,19.36
2018-03-07T08:18:40.694Z,19.39
2018-03-07T08:19:49.920Z,19.39
2018-03-07T08:20:59.691Z,19.4
2018-03-07T08:22:08.915Z,19.36
2018-03-07T08:23:18.408Z,19.36
2018-03-07T08:24:27.636Z,19.37
2018-03-07T08:25:37.668Z,19.36
2018-03-07T08:26:47.156Z,19.36
2018-03-07T08:27:56.645Z,19.43
2018-03-07T08:29:05.873Z,19.41
2018-03-07T08:30:15.638Z,19.32
2018-03-07T08:31:24.861Z,19.46
2018-03-07T08:32:34.357Z,19.39
2018-03-07T08:33:43.585Z,19.36
2018-03-07T08:34:53.342Z,19.28
2018-03-07T08:36:02.820Z,19.37
2018-03-07T08:37:12.309Z,19.36
2018-03-07T08:38:22.081Z,19.41
2018-03-07T08:39:31.301Z,19.32
2018-03-07T08:40:41.069Z,19.44
2018-03-07T08:41:51.100Z,19.43
2018-03-07T08:43:00.860Z,19.41
2018-03-07T08:44:10.622Z,19.32
2018-03-07T08:45:20.383Z,19.33
2018-03-07T08:46:29.605Z,19.4
2018-03-07T08:47:38.561Z,19.39
2018-03-07T08:48:48.317Z,19.39
2018-03-07T08:49:57.809Z,19.39
2018-03-07T08:51:07.307Z,19.36
2018-03-07T08:52:16.811Z,19.4
2018-03-07T08:53:26.038Z,19.32
2018-03-07T08:54:35.525Z,19.39
2018-03-07T08:55:45.018Z,19.44
2018-03-07T08:56:54.514Z,19.36
2018-03-07T08:58:03.739Z,19.37
2018-03-07T08:59:12.961Z,19.32
2018-03-07T09:00:22.724Z,19.43
2018-03-07T09:01:32.536Z,19.41
2018-03-07T09:02:42.306Z,19.39
2018-03-07T09:03:51.800Z,19.36
2018-03-07T09:05:01.023Z,19.36
2018-03-07T09:06:10.250Z,19.28
2018-03-07T09:07:19.736Z,19.32
2018-03-07T09:08:29.233Z,19.28
2018-03-07T09:09:38.726Z,19.28
2018-03-07T09:10:48.492Z,19.32
2018-03-07T09:11:57.991Z,19.26
2018-03-07T09:13:07.490Z,19.37
2018-03-07T09:14:16.982Z,19.23
2018-03-07T09:15:25.936Z,19.37
2018-03-07T09:16:35.760Z,19.31
2018-03-07T09:17:44.718Z,19.33
2018-03-07T09:18:54.207Z,19.32
2018-03-07T09:20:02.893Z,19.33
2018-03-07T09:21:12.121Z,19.29
2018-03-07T09:22:21.343Z,19.26
2018-03-07T09:23:30.834Z,19.28
2018-03-07T09:24:40.325Z,19.32
2018-03-07T09:25:49.279Z,19.28
2018-03-07T09:26:59.035Z,19.36
2018-03-07T09:28:09.063Z,19.25
2018-03-07T09:29:18.826Z,19.18
2018-03-07T09:30:28.054Z,19.18
2018-03-07T09:31:37.549Z,19.11
2018-03-07T09:32:46.776Z,19.16
2018-03-07T09:33:56.281Z,19.07
2018-03-07T09:35:05.804Z,19.21
2018-03-07T09:36:15.841Z,19.1
2018-03-07T09:37:25.069Z,19.1
2018-03-07T09:38:34.561Z,19.14
2018-03-07T09:39:44.056Z,19.14
2018-03-07T09:40:53.817Z,19.22
2018-03-07T09:42:03.629Z,19.18
2018-03-07T09:43:12.587Z,19.28
2018-03-07T09:44:22.353Z,19.21
2018-03-07T09:45:31.852Z,19.14
2018-03-07T09:46:41.080Z,19.31
2018-03-07T09:47:50.572Z,19.22
2018-03-07T09:49:00.063Z,19.25
2018-03-07T09:50:09.823Z,19.23
2018-03-07T09:51:19.314Z,19.25
2018-03-07T09:52:28.530Z,19.26
2018-03-07T09:53:38.021Z,19.25
2018-03-07T09:54:47.251Z,19.32
2018-03-07T09:55:57.279Z,19.19
2018-03-07T09:57:07.312Z,19.28
2018-03-07T09:58:16.809Z,19.23
2018-03-07T09:59:26.308Z,19.25
2018-03-07T10:00:36.074Z,19.25
2018-03-07T10:01:45.835Z,19.25
2018-03-07T10:02:55.859Z,19.29
2018-03-07T10:04:05.082Z,19.31
2018-03-07T10:05:14.585Z,19.25
2018-03-07T10:06:24.345Z,19.25
2018-03-07T10:07:33.842Z,19.29
2018-03-07T10:08:43.604Z,19.25
2018-03-07T10:09:53.637Z,19.28
2018-03-07T10:11:03.663Z,19.22
2018-03-07T10:12:12.891Z,19.25
2018-03-07T10:13:22.379Z,19.16
2018-03-07T10:14:32.195Z,19.26
2018-03-07T10:15:41.664Z,19.29
2018-03-07T10:16:51.420Z,19.25
2018-03-07T10:18:00.913Z,19.29
2018-03-07T10:19:10.401Z,19.28
2018-03-07T10:20:20.434Z,19.22
2018-03-07T10:21:29.662Z,19.25
2018-03-07T10:22:39.695Z,19.32
2018-03-07T10:23:49.250Z,19.32
2018-03-07T10:24:58.753Z,19.26
2018-03-07T10:26:08.244Z,19.31
2018-03-07T10:27:17.742Z,19.28
2018-03-07T10:28:27.512Z,19.29
2018-03-07T10:29:36.727Z,19.28
2018-03-07T10:30:46.217Z,19.26
2018-03-07T10:31:55.714Z,19.28
2018-03-07T10:33:04.692Z,19.29
2018-03-07T10:34:14.479Z,19.29
2018-03-07T10:35:24.670Z,19.29
2018-03-07T10:36:34.173Z,19.29
2018-03-07T10:37:43.396Z,19.28
2018-03-07T10:38:52.355Z,19.26
2018-03-07T10:40:01.846Z,19.25
2018-03-07T10:41:11.333Z,19.26
2018-03-07T10:42:20.820Z,19.28
2018-03-07T10:43:30.848Z,19.28
2018-03-07T10:44:39.809Z,19.32
2018-03-07T10:45:49.037Z,19.29
2018-03-07T10:46:58.808Z,19.33
2018-03-07T10:48:08.569Z,19.28
2018-03-07T10:49:18.113Z,19.32
2018-03-07T10:50:27.602Z,19.32
2018-03-07T10:51:37.098Z,19.31
2018-03-07T10:52:46.060Z,19.26
2018-03-07T10:53:55.013Z,19.28
2018-03-07T10:55:04.773Z,19.31
2018-03-07T10:56:13.997Z,19.23
2018-03-07T10:57:23.489Z,19.31
2018-03-07T10:58:32.714Z,19.26
2018-03-07T10:59:42.212Z,19.26
2018-03-07T11:00:51.705Z,19.31
2018-03-07T11:02:01.732Z,19.26
2018-03-07T11:03:11.760Z,19.32
2018-03-07T11:04:20.987Z,19.26
2018-03-07T11:05:30.215Z,19.32
2018-03-07T11:06:39.972Z,19.39
2018-03-07T11:07:48.925Z,19.31
2018-03-07T11:08:58.419Z,19.31
2018-03-07T11:10:08.183Z,19.32
2018-03-07T11:11:18.214Z,19.31
2018-03-07T11:12:27.976Z,19.31
2018-03-07T11:13:37.732Z,19.31
2018-03-07T11:14:46.956Z,19.32
2018-03-07T11:15:56.727Z,19.32
2018-03-07T11:17:06.216Z,19.36
2018-03-07T11:18:15.999Z,19.29
2018-03-07T11:19:25.222Z,19.29
2018-03-07T11:20:34.448Z,19.32
2018-03-07T11:21:44.541Z,19.31
2018-03-07T11:22:54.036Z,19.26
2018-03-07T11:24:03.528Z,19.31
2018-03-07T11:25:13.291Z,19.26
2018-03-07T11:26:23.059Z,19.29
2018-03-07T11:27:32.837Z,19.33
2018-03-07T11:28:42.424Z,19.41
2018-03-07T11:29:52.176Z,19.37
2018-03-07T11:31:01.666Z,19.4
2018-03-07T11:32:10.888Z,19.33
2018-03-07T11:33:20.379Z,19.33
2018-03-07T11:34:29.357Z,19.39
2018-03-07T11:35:39.117Z,19.46
2018-03-07T11:36:48.876Z,19.36
2018-03-07T11:37:58.101Z,19.43
2018-03-07T11:39:07.319Z,19.37
2018-03-07T11:40:17.346Z,19.43
2018-03-07T11:41:27.106Z,19.43
2018-03-07T11:42:36.333Z,19.46
2018-03-07T11:43:46.102Z,19.4
2018-03-07T11:44:55.864Z,19.39
2018-03-07T11:46:04.818Z,19.47
2018-03-07T11:47:14.310Z,19.33
2018-03-07T11:48:24.066Z,19.46
2018-03-07T11:49:33.033Z,19.43
2018-03-07T11:50:42.262Z,19.44
2018-03-07T11:51:51.219Z,19.5
2018-03-07T11:53:00.740Z,19.43
2018-03-07T11:54:09.962Z,19.43
2018-03-07T11:55:19.991Z,19.44
2018-03-07T11:56:29.479Z,19.48
2018-03-07T11:57:38.446Z,19.48
2018-03-07T11:58:47.938Z,19.5
2018-03-07T11:59:56.624Z,19.44
2018-03-07T12:01:06.386Z,19.48
2018-03-07T12:02:16.408Z,19.5
2018-03-07T12:03:26.165Z,19.5
2018-03-07T12:04:36.215Z,19.48
2018-03-07T12:05:45.441Z,19.43
2018-03-07T12:06:55.479Z,19.46
2018-03-07T12:08:05.522Z,19.5
2018-03-07T12:09:15.014Z,19.46
2018-03-07T12:10:24.769Z,19.46
2018-03-07T12:11:33.994Z,19.46
2018-03-07T12:12:43.530Z,19.51
2018-03-07T12:13:53.297Z,19.48
2018-03-07T12:15:02.249Z,19.46
2018-03-07T12:16:11.479Z,19.47
2018-03-07T12:17:20.705Z,19.5
2018-03-07T12:18:30.463Z,19.46
2018-03-07T12:19:39.966Z,19.46
2018-03-07T12:20:49.724Z,19.46
2018-03-07T12:21:59.216Z,19.51
2018-03-07T12:23:08.436Z,19.48
2018-03-07T12:24:17.390Z,19.51
2018-03-07T12:25:27.156Z,19.48
2018-03-07T12:26:36.893Z,19.51
2018-03-07T12:27:46.126Z,19.44
2018-03-07T12:28:55.079Z,19.48
2018-03-07T12:30:04.578Z,19.51
2018-03-07T12:31:14.337Z,19.51
2018-03-07T12:32:23.829Z,19.51
2018-03-07T12:33:33.325Z,19.5
2018-03-07T12:34:42.276Z,19.51
2018-03-07T12:35:51.500Z,19.5
2018-03-07T12:37:01.258Z,19.48
2018-03-07T12:38:10.749Z,19.47
2018-03-07T12:39:20.239Z,19.51
2018-03-07T12:40:29.460Z,19.51
2018-03-07T12:41:39.223Z,19.54
2018-03-07T12:42:49.289Z,19.54
2018-03-07T12:43:59.057Z,19.46
2018-03-07T12:45:09.086Z,19.51
2018-03-07T12:46:19.119Z,19.46
2018-03-07T12:47:28.625Z,19.47
2018-03-07T12:48:38.394Z,19.46
2018-03-07T12:49:48.420Z,19.46
2018-03-07T12:50:57.375Z,19.54
2018-03-07T12:52:07.425Z,19.56
2018-03-07T12:53:17.187Z,19.47
2018-03-07T12:54:26.415Z,19.5
2018-03-07T12:55:35.912Z,19.46
2018-03-07T12:56:45.408Z,19.5
2018-03-07T12:57:54.898Z,19.51
2018-03-07T12:59:04.392Z,19.55
2018-03-07T13:00:13.880Z,19.51
2018-03-07T13:01:23.379Z,19.5
2018-03-07T13:02:32.874Z,19.51
2018-03-07T13:03:42.389Z,19.44
2018-03-07T13:04:51.884Z,19.5
2018-03-07T13:06:01.105Z,19.47
2018-03-07T13:07:10.870Z,19.46
2018-03-07T13:08:20.637Z,19.47
2018-03-07T13:09:30.132Z,19.44
2018-03-07T13:10:39.632Z,19.51
2018-03-07T13:11:49.396Z,19.47
2018-03-07T13:12:59.462Z,19.55
2018-03-07T13:14:08.757Z,19.5
2018-03-07T13:15:18.524Z,19.46
2018-03-07T13:16:28.401Z,19.46
2018-03-07T13:17:37.628Z,19.44
2018-03-07T13:18:47.403Z,19.51
2018-03-07T13:19:56.898Z,19.56
2018-03-07T13:21:06.657Z,19.51
2018-03-07T13:22:16.694Z,19.62
2018-03-07T13:23:26.189Z,19.58
2018-03-07T13:24:35.949Z,19.58
2018-03-07T13:25:45.444Z,19.58
2018-03-07T13:26:54.947Z,19.55
2018-03-07T13:28:04.172Z,19.5
2018-03-07T13:29:13.939Z,19.55
2018-03-07T13:30:23.439Z,19.59
2018-03-07T13:31:32.939Z,19.51
2018-03-07T13:32:42.432Z,19.55
2018-03-07T13:33:51.660Z,19.58
2018-03-07T13:35:01.143Z,19.59
2018-03-07T13:36:10.645Z,19.61
2018-03-07T13:37:20.135Z,19.51
2018-03-07T13:38:29.900Z,19.65
2018-03-07T13:39:39.399Z,19.62
2018-03-07T13:40:49.166Z,19.58
2018-03-07T13:41:58.930Z,19.56
2018-03-07T13:43:08.698Z,19.54
2018-03-07T13:44:18.453Z,19.51
2018-03-07T13:45:27.413Z,19.48
2018-03-07T13:46:37.169Z,19.47
2018-03-07T13:47:46.940Z,19.51
2018-03-07T13:48:56.968Z,19.56
2018-03-07T13:50:06.195Z,19.51
2018-03-07T13:51:15.959Z,19.58
2018-03-07T13:52:25.985Z,19.61
2018-03-07T13:53:34.943Z,19.58
2018-03-07T13:54:45.355Z,19.63
2018-03-07T13:55:55.006Z,19.61
2018-03-07T13:57:04.180Z,19.69
2018-03-07T13:58:13.945Z,19.74
2018-03-07T13:59:23.731Z,19.68
2018-03-07T14:00:33.262Z,19.58
2018-03-07T14:01:42.501Z,19.62
2018-03-07T14:02:52.033Z,19.63
2018-03-07T14:04:01.014Z,19.71
2018-03-07T14:05:09.995Z,19.68
2018-03-07T14:06:20.115Z,19.73
2018-03-07T14:07:29.936Z,19.71
2018-03-07T14:08:39.457Z,19.69
2018-03-07T14:09:49.316Z,19.63
2018-03-07T14:10:58.676Z,19.62
2018-03-07T14:12:08.226Z,19.68
2018-03-07T14:13:17.463Z,19.58
2018-03-07T14:14:27.078Z,19.66
2018-03-07T14:15:36.483Z,19.66
2018-03-07T14:16:46.372Z,19.66
2018-03-07T14:17:56.396Z,19.61
2018-03-07T14:19:06.173Z,19.69
2018-03-07T14:20:15.157Z,19.73
2018-03-07T14:21:24.669Z,19.73
2018-03-07T14:22:34.275Z,19.59
2018-03-07T14:23:43.785Z,19.68
2018-03-07T14:24:53.285Z,19.63
2018-03-07T14:26:03.062Z,19.71
2018-03-07T14:27:12.578Z,19.59
2018-03-07T14:28:53.965Z,19.44
2018-03-07T14:30:03.252Z,19.48
2018-03-07T14:31:12.548Z,19.48
2018-03-07T14:32:21.791Z,19.47
2018-03-07T14:33:31.066Z,19.5
2018-03-07T14:34:41.195Z,19.51
2018-03-07T14:35:51.340Z,19.55
2018-03-07T14:37:00.832Z,19.55
2018-03-07T14:38:11.152Z,19.61
2018-03-07T14:39:20.557Z,19.58
2018-03-07T14:40:30.424Z,19.62
2018-03-07T14:41:39.834Z,19.59
2018-03-07T14:42:49.906Z,19.63
2018-03-07T14:43:59.396Z,19.61
2018-03-07T14:45:08.890Z,19.59
2018-03-07T14:46:17.992Z,19.63
2018-03-07T14:47:27.620Z,19.58
2018-03-07T14:48:37.112Z,19.61
2018-03-07T14:49:46.345Z,19.61
2018-03-07T14:50:56.109Z,19.61
2018-03-07T14:52:05.313Z,19.65
2018-03-07T14:53:14.604Z,19.66
2018-03-07T14:54:24.197Z,19.65
2018-03-07T14:55:33.757Z,19.58
2018-03-07T14:56:43.410Z,19.62
2018-03-07T14:57:52.592Z,19.73
2018-03-07T14:59:02.658Z,19.74
2018-03-07T15:00:12.415Z,19.69
2018-03-07T15:01:21.706Z,19.65
2018-03-07T15:02:30.850Z,19.59
2018-03-07T15:03:40.397Z,19.59
2018-03-07T15:04:49.909Z,19.59
2018-03-07T15:05:59.555Z,19.63
2018-03-07T15:07:09.052Z,19.73
2018-03-07T15:08:18.385Z,19.62
2018-03-07T15:09:28.162Z,19.59
2018-03-07T15:10:37.933Z,19.62
2018-03-07T15:11:47.455Z,19.66
2018-03-07T15:12:56.702Z,19.68
2018-03-07T15:14:06.471Z,19.63
2018-03-07T15:15:15.535Z,19.66
2018-03-07T15:16:24.934Z,19.63
2018-03-07T15:17:34.175Z,19.63
2018-03-07T15:18:44.363Z,19.74
2018-03-07T15:19:53.906Z,19.58
2018-03-07T15:21:02.877Z,19.59
2018-03-07T15:22:12.786Z,19.71
2018-03-07T15:23:21.785Z,19.68
2018-03-07T15:24:31.578Z,19.65
2018-03-07T15:25:40.572Z,19.66
2018-03-07T15:26:49.852Z,19.71
2018-03-07T15:27:59.081Z,19.66
2018-03-07T15:29:08.321Z,19.73
2018-03-07T15:30:17.816Z,19.56
2018-03-07T15:31:27.598Z,19.56
2018-03-07T15:32:37.105Z,19.56
2018-03-07T15:33:46.610Z,19.56
2018-03-07T15:34:55.855Z,19.51
2018-03-07T15:36:04.827Z,19.55
2018-03-07T15:37:14.873Z,19.55
2018-03-07T15:38:24.651Z,19.51
2018-03-07T15:39:34.158Z,19.58
2018-03-07T15:40:43.674Z,19.59
2018-03-07T15:41:52.915Z,19.58
2018-03-07T15:43:02.159Z,19.61
2018-03-07T15:44:11.719Z,19.59
2018-03-07T15:45:21.499Z,19.59
2018-03-07T15:46:31.279Z,19.59
2018-03-07T15:47:41.065Z,19.63
2018-03-07T15:48:50.570Z,19.71
2018-03-07T15:49:59.804Z,19.56
2018-03-07T15:51:08.779Z,19.69
2018-03-07T15:52:17.753Z,19.69
2018-03-07T15:53:27.005Z,19.63
2018-03-07T15:54:36.516Z,19.69
2018-03-07T15:55:46.047Z,19.68
2018-03-07T15:56:54.752Z,19.63
2018-03-07T15:58:04.530Z,19.73
2018-03-07T15:59:14.036Z,19.66
2018-03-07T16:00:23.805Z,19.69
2018-03-07T16:01:32.775Z,19.58
2018-03-07T16:02:42.279Z,19.61
2018-03-07T16:03:51.839Z,19.73
2018-03-07T16:05:01.120Z,19.73
2018-03-07T16:06:10.902Z,19.58
2018-03-07T16:07:20.712Z,19.76
2018-03-07T16:08:29.960Z,19.58
2018-03-07T16:09:39.491Z,19.56
2018-03-07T16:10:49.048Z,19.68
2018-03-07T16:11:58.816Z,19.68
2018-03-07T16:13:08.871Z,19.66
2018-03-07T16:14:17.827Z,19.65
2018-03-07T16:15:27.381Z,19.61
2018-03-07T16:16:37.157Z,19.56
2018-03-07T16:17:46.466Z,19.62
2018-03-07T16:18:56.586Z,19.68
2018-03-07T16:20:06.406Z,19.76
2018-03-07T16:21:15.645Z,19.59
2018-03-07T16:22:24.887Z,19.65
2018-03-07T16:23:34.187Z,19.59
2018-03-07T16:24:44.053Z,19.65
2018-03-07T16:25:53.829Z,19.71
2018-03-07T16:27:03.608Z,19.71
2018-03-07T16:28:13.405Z,19.73
2018-03-07T16:29:22.903Z,19.74
2018-03-07T16:30:32.233Z,19.76
2018-03-07T16:31:42.307Z,19.76
2018-03-07T16:32:51.867Z,19.71
2018-03-07T16:34:00.864Z,19.69
2018-03-07T16:35:10.454Z,19.71
2018-03-07T16:36:19.952Z,19.83
2018-03-07T16:37:29.510Z,19.73
2018-03-07T16:38:39.105Z,19.73
2018-03-07T16:39:48.893Z,19.8
2018-03-07T16:40:58.162Z,19.76
2018-03-07T16:42:07.159Z,19.8
2018-03-07T16:43:16.396Z,19.8
2018-03-07T16:44:26.510Z,19.83
2018-03-07T16:45:36.316Z,19.74
2018-03-07T16:46:45.821Z,19.69
2018-03-07T16:47:55.228Z,19.74
2018-03-07T16:49:04.727Z,19.84
2018-03-07T16:50:13.952Z,19.83
2018-03-07T16:51:22.909Z,19.81
2018-03-07T16:52:31.598Z,19.87
2018-03-07T16:53:41.091Z,19.81
2018-03-07T16:54:50.867Z,19.83
2018-03-07T16:56:00.365Z,19.83
2018-03-07T16:57:09.598Z,19.92
2018-03-07T16:58:19.636Z,19.77
2018-03-07T16:59:29.132Z,19.83
2018-03-07T17:00:38.358Z,19.81
2018-03-07T17:01:47.847Z,19.83
2018-03-07T17:02:57.342Z,19.83
2018-03-07T17:04:06.851Z,19.76
2018-03-07T17:05:16.612Z,19.78
2018-03-07T17:06:26.103Z,19.74
2018-03-07T17:07:36.126Z,19.71
2018-03-07T17:08:45.362Z,19.73
2018-03-07T17:09:54.852Z,19.78
2018-03-07T17:11:04.652Z,19.68
2018-03-07T17:12:14.423Z,19.66
2018-03-07T17:13:23.949Z,19.71
2018-03-07T17:14:33.434Z,19.74
2018-03-07T17:15:43.192Z,19.73
2018-03-07T17:16:52.418Z,19.71
2018-03-07T17:18:01.927Z,19.76
2018-03-07T17:19:11.421Z,19.73
2018-03-07T17:20:21.189Z,19.68
2018-03-07T17:21:30.693Z,19.66
2018-03-07T17:22:40.452Z,19.68
2018-03-07T17:23:49.945Z,19.71
2018-03-07T17:24:59.447Z,19.73
2018-03-07T17:26:08.946Z,19.71
2018-03-07T17:27:18.440Z,19.69
2018-03-07T17:28:28.468Z,19.71
2018-03-07T17:30:09.772Z,19.68
2018-03-07T17:31:18.991Z,19.66
2018-03-07T17:32:28.756Z,19.66
2018-03-07T17:33:38.249Z,19.69
2018-03-07T17:34:47.472Z,19.68
2018-03-07T17:35:56.967Z,19.71
2018-03-07T17:37:06.470Z,19.73
2018-03-07T17:38:16.236Z,19.73
2018-03-07T17:39:25.456Z,19.63
2018-03-07T17:40:34.410Z,19.71
2018-03-07T17:41:43.635Z,19.74
2018-03-07T17:42:53.482Z,19.61
2018-03-07T17:44:02.435Z,19.61
2018-03-07T17:45:11.659Z,19.69
2018-03-07T17:46:21.151Z,19.61
2018-03-07T17:47:30.914Z,19.69
2018-03-07T17:48:40.680Z,19.69
2018-03-07T17:49:50.957Z,19.71
2018-03-07T17:51:00.964Z,19.69
2018-03-07T17:52:10.457Z,19.61
2018-03-07T17:53:20.219Z,19.62
2018-03-07T17:54:30.278Z,19.59
2018-03-07T17:55:39.503Z,19.66
2018-03-07T17:56:49.004Z,19.63
2018-03-07T17:57:57.961Z,19.56
2018-03-07T17:59:07.187Z,19.62
2018-03-07T18:00:16.739Z,19.56
2018-03-07T18:01:26.500Z,19.66
2018-03-07T18:02:36.006Z,19.66
2018-03-07T18:03:45.228Z,19.65
2018-03-07T18:04:54.179Z,19.66
2018-03-07T18:06:03.398Z,19.62
2018-03-07T18:07:12.898Z,19.63
2018-03-07T18:08:22.122Z,19.63
2018-03-07T18:09:31.077Z,19.63
2018-03-07T18:10:40.038Z,19.69
2018-03-07T18:11:49.532Z,19.69
2018-03-07T18:12:59.035Z,19.68
2018-03-07T18:14:08.257Z,19.63
2018-03-07T18:15:17.754Z,19.65
2018-03-07T18:16:26.705Z,19.66
2018-03-07T18:17:36.202Z,19.63
2018-03-07T18:18:45.691Z,19.63
2018-03-07T18:19:54.918Z,19.66
2018-03-07T18:21:04.138Z,19.63
2018-03-07T18:22:13.095Z,19.71
2018-03-07T18:23:22.325Z,19.65
2018-03-07T18:24:31.549Z,19.69
2018-03-07T18:25:41.088Z,19.65
2018-03-07T18:26:51.119Z,19.63
2018-03-07T18:28:00.609Z,19.61
2018-03-07T18:29:10.158Z,19.55
2018-03-07T18:30:19.383Z,19.63
2018-03-07T18:31:28.871Z,19.59
2018-03-07T18:32:38.097Z,19.66
2018-03-07T18:33:47.319Z,19.56
2018-03-07T18:34:57.083Z,19.59
2018-03-07T18:36:06.308Z,19.63
2018-03-07T18:37:15.808Z,19.65
2018-03-07T18:38:25.844Z,19.59
2018-03-07T18:39:35.078Z,19.58
2018-03-07T18:40:44.034Z,19.59
2018-03-07T18:41:53.523Z,19.68
2018-03-07T18:43:02.747Z,19.62
2018-03-07T18:44:11.983Z,19.58
2018-03-07T18:45:21.203Z,19.58
2018-03-07T18:46:30.970Z,19.62
2018-03-07T18:47:40.735Z,19.74
2018-03-07T18:48:49.963Z,19.61
2018-03-07T18:49:59.724Z,19.61
2018-03-07T18:51:08.682Z,19.61
2018-03-07T18:52:17.905Z,19.59
2018-03-07T18:53:27.400Z,19.59
2018-03-07T18:54:36.890Z,19.61
2018-03-07T18:55:46.380Z,19.61
2018-03-07T18:56:56.142Z,19.68
2018-03-07T18:58:05.687Z,19.58
2018-03-07T18:59:15.460Z,19.63
2018-03-07T19:00:24.955Z,19.58
2018-03-07T19:01:33.913Z,19.62
2018-03-07T19:02:43.411Z,19.65
2018-03-07T19:03:53.208Z,19.56
2018-03-07T19:05:02.498Z,19.66
2018-03-07T19:06:11.455Z,19.63
2018-03-07T19:07:21.217Z,19.58
2018-03-07T19:08:30.985Z,19.59
2018-03-07T19:09:40.476Z,19.62
2018-03-07T19:10:49.962Z,19.58
2018-03-07T19:11:59.992Z,19.62
2018-03-07T19:13:09.483Z,19.69
2018-03-07T19:14:18.714Z,19.63
2018-03-07T19:15:28.740Z,19.63
2018-03-07T19:16:38.497Z,19.61
2018-03-07T19:17:48.530Z,19.61
2018-03-07T19:18:57.764Z,19.65
2018-03-07T19:20:07.256Z,19.63
2018-03-07T19:21:17.021Z,19.59
2018-03-07T19:22:26.778Z,19.59
2018-03-07T19:23:36.271Z,19.61
2018-03-07T19:24:45.496Z,19.59
2018-03-07T19:25:54.450Z,19.69
2018-03-07T19:27:03.941Z,19.59
2018-03-07T19:28:13.430Z,19.59
2018-03-07T19:29:22.938Z,19.59
2018-03-07T19:30:32.164Z,19.58
2018-03-07T19:31:41.926Z,19.62
2018-03-07T19:32:51.414Z,19.61
2018-03-07T19:34:01.171Z,19.61
2018-03-07T19:35:10.678Z,19.69
2018-03-07T19:36:20.459Z,19.58
2018-03-07T19:37:30.224Z,19.73
2018-03-07T19:38:39.445Z,19.71
2018-03-07T19:39:48.673Z,19.71
2018-03-07T19:40:58.162Z,19.71
2018-03-07T19:42:07.386Z,19.71
2018-03-07T19:43:17.194Z,19.76
2018-03-07T19:44:27.284Z,19.81
2018-03-07T19:45:36.805Z,19.73
2018-03-07T19:46:46.314Z,19.84
2018-03-07T19:47:56.076Z,19.81
2018-03-07T19:49:05.390Z,19.76
2018-03-07T19:50:15.066Z,19.8
2018-03-07T19:51:24.605Z,19.84
2018-03-07T19:52:34.428Z,19.83
2018-03-07T19:53:43.747Z,19.84
2018-03-07T19:54:53.520Z,19.81
2018-03-07T19:56:03.017Z,19.86
2018-03-07T19:57:11.980Z,19.88
2018-03-07T19:58:21.780Z,19.83
2018-03-07T19:59:31.074Z,19.83
2018-03-07T20:00:40.216Z,19.84
2018-03-07T20:01:49.709Z,19.81
2018-03-07T20:02:59.242Z,19.83
2018-03-07T20:04:08.468Z,19.87
2018-03-07T20:05:18.231Z,19.8
2018-03-07T20:06:28.322Z,19.83
2018-03-07T20:07:38.103Z,19.73
2018-03-07T20:08:47.332Z,19.8
2018-03-07T20:09:57.102Z,19.83
2018-03-07T20:11:06.597Z,19.73
2018-03-07T20:12:16.137Z,19.74
2018-03-07T20:13:26.357Z,19.71
2018-03-07T20:14:36.162Z,19.69
2018-03-07T20:15:45.933Z,19.71
2018-03-07T20:16:55.150Z,19.71
2018-03-07T20:18:04.396Z,19.74
2018-03-07T20:19:13.941Z,19.65
2018-03-07T20:20:23.172Z,19.71
2018-03-07T20:21:32.941Z,19.71
2018-03-07T20:22:42.476Z,19.69
2018-03-07T20:23:51.874Z,19.68